createdAt,value
2018-05-06T00:00:57.880Z,50.80
2018-05-06T00:03:28.459Z,51.00
2018-05-06T00:05:56.643Z,51.00
2018-05-06T00:08:24.866Z,51.50
2018-05-06T00:10:53.340Z,51.50
2018-05-06T00:13:22.375Z,52.10
2018-05-06T00:15:52.259Z,52.80
2018-05-06T00:18:20.797Z,52.80
2018-05-06T00:20:48.943Z,53.60
2018-05-06T00:23:18.051Z,52.80
2018-05-06T00:25:46.651Z,52.70
2018-05-06T00:28:14.900Z,52.50
2018-05-06T00:30:44.052Z,52.50
2018-05-06T00:33:12.476Z,50.90
2018-05-06T00:35:41.834Z,51.20
2018-05-06T00:38:10.003Z,50.50
2018-05-06T00:40:39.083Z,51.00
2018-05-06T00:43:08.351Z,50.50
2018-05-06T00:45:37.778Z,51.10
2018-05-06T00:48:07.583Z,51.10
2018-05-06T00:50:36.121Z,51.60
2018-05-06T00:53:04.507Z,52.10
2018-05-06T00:55:33.172Z,52.70
2018-05-06T00:58:01.762Z,52.30
2018-05-06T01:00:29.938Z,52.60
2018-05-06T01:02:59.062Z,52.60
2018-05-06T01:05:27.796Z,53.20
2018-05-06T01:07:56.623Z,53.10
2018-05-06T01:10:25.231Z,52.40
2018-05-06T01:12:54.524Z,52.60
2018-05-06T01:15:23.680Z,52.20
2018-05-06T01:17:51.811Z,52.30
2018-05-06T01:20:20.715Z,52.50
2018-05-06T01:22:48.899Z,52.40
2018-05-06T01:25:17.464Z,52.40
2018-05-06T01:27:46.290Z,52.40
2018-05-06T01:30:16.019Z,53.00
2018-05-06T01:32:44.722Z,53.00
2018-05-06T01:35:12.902Z,53.30
2018-05-06T01:37:41.556Z,53.40
2018-05-06T01:40:10.591Z,53.70
2018-05-06T01:42:38.792Z,53.70
2018-05-06T01:45:07.746Z,53.90
2018-05-06T01:47:35.926Z,54.40
2018-05-06T01:50:04.829Z,54.90
2018-05-06T01:52:32.976Z,55.00
2018-05-06T01:55:01.509Z,55.10
2018-05-06T01:57:30.598Z,55.30
2018-05-06T02:00:00.689Z,55.40
2018-05-06T02:02:29.113Z,55.30
2018-05-06T02:04:59.097Z,55.60
2018-05-06T02:07:27.626Z,56.00
2018-05-06T02:09:55.799Z,55.60
2018-05-06T02:12:24.362Z,55.60
2018-05-06T02:14:52.506Z,55.60
2018-05-06T02:17:21.517Z,56.20
2018-05-06T02:19:50.669Z,56.30
2018-05-06T02:22:18.834Z,56.70
2018-05-06T02:24:47.759Z,56.90
2018-05-06T02:27:16.477Z,57.10
2018-05-06T02:29:46.218Z,57.60
2018-05-06T02:32:15.181Z,57.50
2018-05-06T02:34:43.773Z,57.50
2018-05-06T02:37:12.235Z,57.70
2018-05-06T02:39:40.712Z,57.40
2018-05-06T02:42:09.280Z,58.00
2018-05-06T02:44:37.434Z,57.80
2018-05-06T02:47:06.527Z,57.80
2018-05-06T02:49:35.030Z,58.30
2018-05-06T02:52:03.801Z,58.80
2018-05-06T02:54:32.939Z,59.20
2018-05-06T02:57:03.451Z,59.10
2018-05-06T02:59:32.438Z,59.10
2018-05-06T03:02:03.752Z,59.00
2018-05-06T03:04:32.173Z,60.60
2018-05-06T03:07:00.600Z,59.50
2018-05-06T03:09:28.739Z,60.10
2018-05-06T03:11:57.959Z,60.20
2018-05-06T03:14:26.485Z,60.30
2018-05-06T03:16:54.839Z,60.40
2018-05-06T03:19:23.433Z,60.60
2018-05-06T03:21:51.579Z,60.20
2018-05-06T03:24:19.755Z,60.90
2018-05-06T03:26:48.682Z,61.60
2018-05-06T03:29:16.859Z,62.00
2018-05-06T03:31:45.538Z,61.60
2018-05-06T03:34:14.168Z,61.80
2018-05-06T03:36:42.797Z,62.00
2018-05-06T03:39:10.963Z,62.50
2018-05-06T03:41:39.432Z,63.20
2018-05-06T03:44:08.061Z,63.20
2018-05-06T03:46:36.483Z,63.80
2018-05-06T03:49:05.082Z,64.20
2018-05-06T03:51:33.533Z,64.90
2018-05-06T03:54:02.479Z,65.50
2018-05-06T03:59:50.984Z,65.70
2018-05-06T04:02:40.526Z,66.60
2018-05-06T04:07:39.147Z,69.20
2018-05-06T04:10:07.753Z,68.80
2018-05-06T04:12:36.210Z,69.30
2018-05-06T04:15:04.803Z,70.00
2018-05-06T04:17:33.892Z,69.80
2018-05-06T04:20:02.313Z,68.00
2018-05-06T04:22:30.451Z,68.90
2018-05-06T04:24:59.741Z,69.40
2018-05-06T04:27:27.914Z,69.40
2018-05-06T04:29:56.412Z,69.40
2018-05-06T04:32:26.395Z,70.10
2018-05-06T04:34:55.723Z,69.50
2018-05-06T04:37:25.190Z,69.40
2018-05-06T04:39:53.911Z,69.40
2018-05-06T04:42:23.322Z,69.80
2018-05-06T04:44:52.255Z,69.80
2018-05-06T04:47:21.487Z,70.90
2018-05-06T04:49:49.941Z,70.80
2018-05-06T04:52:18.636Z,70.50
2018-05-06T04:54:47.309Z,69.80
2018-05-06T04:57:16.634Z,68.60
2018-05-06T04:59:44.824Z,68.60
2018-05-06T05:02:13.303Z,68.00
2018-05-06T05:04:41.448Z,67.60
2018-05-06T05:07:10.459Z,68.30
2018-05-06T05:09:39.125Z,67.50
2018-05-06T05:12:07.683Z,68.20
2018-05-06T05:14:36.654Z,66.60
2018-05-06T05:17:04.869Z,67.40
2018-05-06T05:19:34.236Z,68.00
2018-05-06T05:22:02.902Z,67.10
2018-05-06T05:24:32.332Z,67.50
2018-05-06T05:27:00.895Z,66.60
2018-05-06T05:29:29.383Z,67.20
2018-05-06T05:31:58.740Z,66.10
2018-05-06T05:34:27.234Z,65.70
2018-05-06T05:36:55.694Z,65.20
2018-05-06T05:39:24.098Z,65.40
2018-05-06T05:41:52.704Z,64.70
2018-05-06T05:44:21.585Z,65.20
2018-05-06T05:46:50.202Z,64.20
2018-05-06T05:49:19.311Z,63.20
2018-05-06T05:51:47.894Z,62.40
2018-05-06T05:54:16.922Z,62.70
2018-05-06T05:56:45.568Z,62.10
2018-05-06T05:59:13.761Z,61.70
2018-05-06T06:01:42.412Z,60.70
2018-05-06T06:04:17.151Z,61.70
2018-05-06T06:06:45.629Z,59.90
2018-05-06T06:09:14.462Z,60.20
2018-05-06T06:11:42.634Z,59.60
2018-05-06T06:14:12.351Z,60.20
2018-05-06T06:16:40.530Z,60.20
2018-05-06T06:19:08.987Z,58.30
2018-05-06T06:21:37.404Z,57.60
2018-05-06T06:24:05.730Z,57.60
2018-05-06T06:26:34.315Z,58.00
2018-05-06T06:29:02.535Z,57.00
2018-05-06T06:31:31.482Z,57.60
2018-05-06T06:33:59.695Z,57.60
2018-05-06T06:36:28.103Z,57.10
2018-05-06T06:38:56.340Z,55.20
2018-05-06T06:41:25.490Z,55.70
2018-05-06T06:43:53.675Z,55.50
2018-05-06T06:46:22.973Z,55.70
2018-05-06T06:48:51.413Z,56.30
2018-05-06T06:51:19.586Z,56.40
2018-05-06T06:53:49.490Z,54.30
2018-05-06T06:56:19.583Z,55.30
2018-05-06T06:58:49.038Z,55.10
2018-05-06T07:01:18.310Z,53.90
2018-05-06T07:03:46.690Z,53.70
2018-05-06T07:06:15.318Z,54.30
2018-05-06T07:08:44.287Z,53.90
2018-05-06T07:11:12.544Z,52.90
2018-05-06T07:13:41.143Z,53.50
2018-05-06T07:16:10.086Z,52.10
2018-05-06T07:18:38.499Z,51.60
2018-05-06T07:21:07.646Z,51.70
2018-05-06T07:23:36.497Z,51.70
2018-05-06T07:26:05.322Z,50.70
2018-05-06T07:28:33.863Z,50.60
2018-05-06T07:31:02.597Z,51.30
2018-05-06T07:33:31.019Z,49.70
2018-05-06T07:35:59.544Z,50.50
2018-05-06T07:38:27.965Z,49.70
2018-05-06T07:40:56.387Z,49.10
2018-05-06T07:43:24.523Z,48.10
2018-05-06T07:45:53.228Z,48.70
2018-05-06T07:48:21.858Z,49.30
2018-05-06T07:50:50.283Z,47.20
2018-05-06T07:53:19.419Z,47.60
2018-05-06T07:55:48.675Z,47.20
2018-05-06T07:58:17.730Z,46.20
2018-05-06T08:00:46.122Z,46.90
2018-05-06T08:03:14.579Z,46.20
2018-05-06T08:05:43.719Z,46.60
2018-05-06T08:08:12.987Z,46.20
2018-05-06T08:10:41.413Z,45.10
2018-05-06T08:13:09.554Z,45.00
2018-05-06T08:15:38.114Z,45.70
2018-05-06T08:18:07.614Z,43.80
2018-05-06T08:20:36.035Z,44.90
2018-05-06T08:23:04.183Z,45.00
2018-05-06T08:25:33.283Z,45.70
2018-05-06T08:28:02.317Z,45.50
2018-05-06T08:30:31.173Z,45.40
2018-05-06T08:32:59.350Z,46.00
2018-05-06T08:35:27.534Z,45.00
2018-05-06T08:37:56.967Z,45.30
2018-05-06T08:40:25.414Z,43.90
2018-05-06T08:42:54.354Z,45.40
2018-05-06T08:45:23.563Z,45.30
2018-05-06T08:47:52.219Z,43.20
2018-05-06T08:50:21.365Z,43.10
2018-05-06T08:52:49.863Z,42.00
2018-05-06T08:55:19.468Z,42.50
2018-05-06T08:57:48.098Z,42.60
2018-05-06T09:00:18.191Z,42.60
2018-05-06T09:02:46.784Z,43.20
2018-05-06T09:05:15.307Z,44.60
2018-05-06T09:07:44.289Z,41.90
2018-05-06T09:10:13.339Z,42.90
2018-05-06T09:12:41.967Z,41.80
2018-05-06T09:15:10.143Z,43.20
2018-05-06T09:17:38.601Z,43.70
2018-05-06T09:20:07.126Z,41.30
2018-05-06T09:22:35.286Z,41.20
2018-05-06T09:25:03.865Z,42.20
2018-05-06T09:27:32.390Z,42.80
2018-05-06T09:30:01.454Z,42.40
2018-05-06T09:32:30.068Z,40.70
2018-05-06T09:34:58.596Z,41.40
2018-05-06T09:37:27.730Z,41.70
2018-05-06T09:39:57.316Z,40.60
2018-05-06T09:42:25.451Z,39.50
2018-05-06T09:44:54.785Z,39.60
2018-05-06T09:47:23.310Z,39.50
2018-05-06T09:49:51.470Z,40.10
2018-05-06T09:52:20.482Z,40.50
2018-05-06T09:54:49.619Z,40.80
2018-05-06T09:57:18.248Z,41.20
2018-05-06T09:59:46.635Z,40.70
2018-05-06T10:02:15.570Z,40.20
2018-05-06T10:04:44.248Z,41.20
2018-05-06T10:07:13.155Z,39.40
2018-05-06T10:09:42.965Z,40.00
2018-05-06T10:12:11.132Z,38.20
2018-05-06T10:14:40.222Z,38.50
2018-05-06T10:17:09.200Z,38.50
2018-05-06T10:19:38.154Z,38.50
2018-05-06T10:22:07.055Z,38.40
2018-05-06T10:24:36.312Z,38.80
2018-05-06T10:27:04.800Z,38.30
2018-05-06T10:29:33.469Z,39.60
2018-05-06T10:32:02.399Z,37.80
2018-05-06T10:34:30.579Z,38.00
2018-05-06T10:36:59.045Z,36.30
2018-05-06T10:39:27.246Z,36.80
2018-05-06T10:41:55.851Z,37.20
2018-05-06T10:44:24.563Z,35.00
2018-05-06T10:46:53.342Z,33.80
2018-05-06T10:49:21.565Z,34.10
2018-05-06T10:51:50.603Z,33.10
2018-05-06T10:54:19.247Z,33.60
2018-05-06T10:56:47.514Z,33.50
2018-05-06T10:59:16.391Z,33.50
2018-05-06T11:01:45.033Z,34.00
2018-05-06T11:04:13.209Z,32.60
2018-05-06T11:06:41.394Z,33.10
2018-05-06T11:09:10.490Z,32.30
2018-05-06T11:11:38.677Z,32.60
2018-05-06T11:14:07.245Z,33.00
2018-05-06T11:16:36.271Z,32.20
2018-05-06T11:19:05.757Z,31.70
2018-05-06T11:21:34.178Z,32.30
2018-05-06T11:24:02.704Z,32.60
2018-05-06T11:26:31.659Z,32.50
2018-05-06T11:29:00.278Z,33.20
2018-05-06T11:31:28.471Z,31.40
2018-05-06T11:33:57.086Z,32.20
2018-05-06T11:36:26.335Z,31.80
2018-05-06T11:38:54.901Z,30.70
2018-05-06T11:41:23.175Z,30.70
2018-05-06T11:43:52.162Z,31.00
2018-05-06T11:46:20.674Z,31.10
2018-05-06T11:48:49.318Z,30.90
2018-05-06T11:51:18.147Z,30.00
2018-05-06T11:53:46.683Z,30.30
2018-05-06T11:56:15.265Z,30.10
2018-05-06T11:58:43.629Z,31.00
2018-05-06T12:01:12.259Z,29.20
2018-05-06T12:03:40.403Z,29.30
2018-05-06T12:06:09.519Z,29.70
2018-05-06T12:08:38.007Z,29.20
2018-05-06T12:11:07.406Z,28.70
2018-05-06T12:13:35.790Z,29.70
2018-05-06T12:16:04.731Z,30.30
2018-05-06T12:18:33.192Z,28.90
2018-05-06T12:21:01.351Z,29.70
2018-05-06T12:23:29.930Z,28.10
2018-05-06T12:25:58.754Z,28.20
2018-05-06T12:28:27.295Z,28.20
2018-05-06T12:30:56.098Z,28.50
2018-05-06T12:33:24.972Z,28.40
2018-05-06T12:35:53.220Z,29.30
2018-05-06T12:38:21.814Z,29.70
2018-05-06T12:40:50.445Z,28.50
2018-05-06T12:43:18.929Z,27.90
2018-05-06T12:45:48.191Z,27.80
2018-05-06T12:48:16.823Z,28.10
2018-05-06T12:50:45.384Z,27.80
2018-05-06T12:53:13.795Z,28.30
2018-05-06T12:55:42.333Z,27.60
2018-05-06T12:58:10.739Z,27.70
2018-05-06T13:00:40.113Z,27.30
2018-05-06T13:03:08.255Z,27.70
2018-05-06T13:05:36.483Z,27.80
2018-05-06T13:08:05.763Z,29.00
2018-05-06T13:10:34.411Z,28.00
2018-05-06T13:13:03.493Z,27.50
2018-05-06T13:15:31.962Z,28.40
2018-05-06T13:18:00.134Z,28.80
2018-05-06T13:20:29.362Z,27.50
2018-05-06T13:22:57.851Z,28.60
2018-05-06T13:25:26.031Z,28.30
2018-05-06T13:27:54.928Z,27.50
2018-05-06T13:30:23.999Z,28.10
2018-05-06T13:32:52.408Z,27.70
2018-05-06T13:35:20.578Z,28.10
2018-05-06T13:37:49.146Z,28.40
2018-05-06T13:40:17.567Z,28.20
2018-05-06T13:42:45.955Z,28.20
2018-05-06T13:45:14.144Z,28.20
2018-05-06T13:47:43.234Z,28.40
2018-05-06T13:50:12.519Z,28.80
2018-05-06T13:52:41.226Z,27.80
2018-05-06T13:55:10.602Z,28.70
2018-05-06T13:57:40.068Z,28.70
2018-05-06T14:00:09.219Z,28.60
2018-05-06T14:02:38.190Z,28.20
2018-05-06T14:05:07.302Z,28.50
2018-05-06T14:07:35.723Z,27.70
2018-05-06T14:10:04.366Z,28.10
2018-05-06T14:12:32.963Z,28.50
2018-05-06T14:15:01.523Z,28.70
2018-05-06T14:17:30.571Z,29.10
2018-05-06T14:19:59.514Z,27.20
2018-05-06T14:22:28.966Z,27.60
2018-05-06T14:24:57.191Z,28.20
2018-05-06T14:27:27.143Z,28.50
2018-05-06T14:29:56.231Z,27.60
2018-05-06T14:32:24.833Z,28.20
2018-05-06T14:34:53.285Z,29.10
2018-05-06T14:37:21.699Z,28.80
2018-05-06T14:39:50.838Z,28.10
2018-05-06T14:42:19.377Z,28.70
2018-05-06T14:44:47.799Z,28.00
2018-05-06T14:47:28.757Z,27.40
2018-05-06T14:49:57.348Z,27.40
2018-05-06T14:52:25.805Z,28.00
2018-05-06T14:54:54.331Z,27.00
2018-05-06T14:57:22.483Z,26.10
2018-05-06T14:59:50.676Z,26.30
2018-05-06T15:02:19.875Z,26.80
2018-05-06T15:04:48.329Z,26.80
2018-05-06T15:07:16.474Z,26.30
2018-05-06T15:09:44.676Z,25.70
2018-05-06T15:12:14.078Z,24.70
2018-05-06T15:14:42.815Z,24.80
2018-05-06T15:17:11.443Z,24.90
2018-05-06T15:19:40.619Z,24.80
2018-05-06T15:22:09.122Z,25.00
2018-05-06T15:24:37.317Z,26.10
2018-05-06T15:27:06.418Z,25.00
2018-05-06T15:29:34.908Z,23.60
2018-05-06T15:32:04.199Z,24.80
2018-05-06T15:34:33.234Z,23.70
2018-05-06T15:37:03.027Z,24.00
2018-05-06T15:39:31.552Z,24.00
2018-05-06T15:41:59.770Z,23.20
2018-05-06T15:44:28.395Z,23.20
2018-05-06T15:46:57.224Z,24.20
2018-05-06T15:49:26.163Z,22.90
2018-05-06T15:51:55.330Z,23.50
2018-05-06T15:54:24.482Z,23.00
2018-05-06T15:56:53.727Z,23.20
2018-05-06T15:59:22.369Z,22.70
2018-05-06T16:02:02.331Z,22.20
2018-05-06T16:04:30.530Z,22.70
2018-05-06T16:06:58.978Z,22.40
2018-05-06T16:09:27.192Z,22.20
2018-05-06T16:11:55.393Z,23.10
2018-05-06T16:14:24.568Z,23.00
2018-05-06T16:16:53.084Z,23.40
2018-05-06T16:19:21.750Z,23.50
2018-05-06T16:21:50.134Z,24.10
2018-05-06T16:24:18.998Z,24.40
2018-05-06T16:26:47.706Z,24.60
2018-05-06T16:29:17.210Z,24.00
2018-05-06T16:31:46.463Z,24.00
2018-05-06T16:34:16.338Z,24.70
2018-05-06T16:36:44.982Z,24.70
2018-05-06T16:39:14.930Z,24.80
2018-05-06T16:41:43.600Z,24.80
2018-05-06T16:44:11.755Z,24.80
2018-05-06T16:46:40.759Z,25.40
2018-05-06T16:49:09.734Z,26.70
2018-05-06T16:51:38.330Z,26.20
2018-05-06T16:54:07.363Z,27.10
2018-05-06T16:56:36.008Z,27.70
2018-05-06T16:59:04.159Z,27.90
2018-05-06T17:01:33.048Z,28.70
2018-05-06T17:04:01.987Z,29.40
2018-05-06T17:06:30.528Z,29.40
2018-05-06T17:08:58.704Z,29.20
2018-05-06T17:11:27.369Z,30.10
2018-05-06T17:13:57.244Z,30.90
2018-05-06T17:16:26.262Z,30.60
2018-05-06T17:18:55.349Z,31.10
2018-05-06T17:21:23.977Z,31.60
2018-05-06T17:23:52.609Z,32.30
2018-05-06T17:26:21.134Z,32.10
2018-05-06T17:28:49.764Z,32.50
2018-05-06T17:31:18.153Z,32.80
2018-05-06T17:33:46.816Z,33.20
2018-05-06T17:36:16.268Z,33.80
2018-05-06T17:38:44.807Z,34.20
2018-05-06T17:41:15.415Z,33.90
2018-05-06T17:43:44.469Z,34.00
2018-05-06T17:46:13.517Z,34.20
2018-05-06T17:48:42.343Z,34.70
2018-05-06T17:51:10.538Z,35.10
2018-05-06T17:53:40.275Z,35.90
2018-05-06T17:56:09.385Z,35.90
2018-05-06T17:58:38.346Z,35.90
2018-05-06T18:01:06.761Z,36.20
2018-05-06T18:03:35.391Z,36.00
2018-05-06T18:06:03.546Z,35.90
2018-05-06T18:08:32.298Z,36.10
2018-05-06T18:11:00.490Z,36.30
2018-05-06T18:13:29.519Z,36.40
2018-05-06T18:15:57.719Z,36.40
2018-05-06T18:18:26.200Z,36.90
2018-05-06T18:20:55.055Z,36.40
2018-05-06T18:23:24.537Z,36.60
2018-05-06T18:25:54.179Z,36.50
2018-05-06T18:28:22.631Z,37.00
2018-05-06T18:30:52.414Z,36.70
2018-05-06T18:33:20.590Z,37.10
2018-05-06T18:35:49.148Z,37.10
2018-05-06T18:38:17.310Z,37.40
2018-05-06T18:40:45.501Z,37.90
2018-05-06T18:43:14.171Z,37.10
2018-05-06T18:45:42.359Z,37.70
2018-05-06T18:48:10.836Z,37.70
2018-05-06T18:50:39.259Z,37.60
2018-05-06T18:53:07.890Z,37.60
2018-05-06T18:55:37.029Z,37.80
2018-05-06T18:58:05.218Z,37.70
2018-05-06T19:00:35.231Z,38.50
2018-05-06T19:03:05.745Z,38.20
2018-05-06T19:05:34.381Z,38.20
2018-05-06T19:08:02.802Z,38.20
2018-05-06T19:10:31.399Z,38.70
2018-05-06T19:12:59.814Z,39.00
2018-05-06T19:15:28.893Z,38.70
2018-05-06T19:17:57.495Z,39.10
2018-05-06T19:20:26.360Z,39.20
2018-05-06T19:22:54.896Z,39.20
2018-05-06T19:25:23.422Z,40.20
2018-05-06T19:27:52.464Z,39.70
2018-05-06T19:30:21.447Z,40.30
2018-05-06T19:32:50.186Z,39.60
2018-05-06T19:35:18.298Z,40.30
2018-05-06T19:37:46.583Z,40.50
2018-05-06T19:40:15.099Z,40.70
2018-05-06T19:42:44.238Z,41.50
2018-05-06T19:45:13.404Z,40.80
2018-05-06T19:47:41.915Z,40.90
2018-05-06T19:50:11.359Z,41.20
2018-05-06T19:52:39.551Z,41.40
2018-05-06T19:55:07.990Z,41.20
2018-05-06T19:57:37.588Z,41.40
2018-05-06T20:00:06.229Z,41.40
2018-05-06T20:02:34.411Z,41.70
2018-05-06T20:05:03.070Z,42.10
2018-05-06T20:07:31.589Z,41.90
2018-05-06T20:10:00.093Z,42.00
2018-05-06T20:12:28.775Z,41.70
2018-05-06T20:14:57.727Z,42.20
2018-05-06T20:17:27.161Z,42.60
2018-05-06T20:19:55.779Z,42.60
2018-05-06T20:22:25.040Z,42.90
2018-05-06T20:24:53.539Z,42.90
2018-05-06T20:27:22.374Z,42.80
2018-05-06T20:29:51.042Z,43.20
2018-05-06T20:32:19.463Z,43.50
2018-05-06T20:34:47.887Z,43.60
2018-05-06T20:37:16.410Z,43.40
2018-05-06T20:39:45.110Z,43.50
2018-05-06T20:42:14.470Z,43.80
2018-05-06T20:44:42.674Z,43.20
2018-05-06T20:47:11.351Z,43.80
2018-05-06T20:49:39.538Z,43.70
2018-05-06T20:52:08.807Z,43.80
2018-05-06T20:54:37.447Z,43.60
2018-05-06T20:57:06.077Z,44.00
2018-05-06T20:59:35.439Z,45.50
2018-05-06T21:02:04.014Z,44.80
2018-05-06T21:04:32.490Z,45.00
2018-05-06T21:07:01.082Z,45.10
2018-05-06T21:09:29.946Z,45.20
2018-05-06T21:11:58.550Z,45.30
2018-05-06T21:14:27.508Z,45.20
2018-05-06T21:16:55.686Z,45.40
2018-05-06T21:19:24.271Z,45.80
2018-05-06T21:21:52.901Z,45.00
2018-05-06T21:24:21.325Z,45.50
2018-05-06T21:26:49.744Z,45.80
2018-05-06T21:29:18.230Z,45.80
2018-05-06T21:31:46.968Z,45.90
2018-05-06T21:34:16.670Z,47.40
2018-05-06T21:36:45.903Z,46.60
2018-05-06T21:39:15.225Z,46.60
2018-05-06T21:41:43.371Z,47.10
2018-05-06T21:44:12.107Z,47.60
2018-05-06T21:46:40.463Z,47.90
2018-05-06T21:49:08.620Z,48.20
2018-05-06T21:51:37.198Z,48.80
2018-05-06T21:54:06.519Z,48.00
2018-05-06T21:56:34.726Z,48.20
2018-05-06T21:59:04.024Z,47.50
2018-05-06T22:01:32.618Z,47.20
2018-05-06T22:04:01.284Z,46.80
2018-05-06T22:06:30.047Z,46.90
2018-05-06T22:08:58.234Z,47.60
2018-05-06T22:11:27.162Z,48.40
2018-05-06T22:13:56.315Z,49.30
2018-05-06T22:16:26.175Z,49.60
2018-05-06T22:18:54.840Z,49.60
2018-05-06T22:21:23.366Z,49.90
2018-05-06T22:23:51.519Z,50.20
2018-05-06T22:26:19.986Z,50.80
2018-05-06T22:28:48.385Z,51.30
2018-05-06T22:31:16.587Z,51.30
2018-05-06T22:33:45.054Z,51.30
2018-05-06T22:38:54.430Z,51.70
2018-05-06T22:41:22.611Z,52.40
2018-05-06T22:43:51.063Z,52.30
2018-05-06T22:46:19.362Z,52.80
2018-05-06T22:48:48.346Z,53.00
2018-05-06T22:51:17.295Z,52.70
2018-05-06T22:53:46.909Z,53.00
2018-05-06T22:56:15.540Z,52.90
2018-05-06T22:58:43.779Z,53.50
2018-05-06T23:01:12.309Z,52.90
2018-05-06T23:03:40.732Z,53.40
2018-05-06T23:06:09.256Z,53.50
2018-05-06T23:08:38.062Z,53.90
2018-05-06T23:11:06.332Z,54.50
2018-05-06T23:13:35.082Z,54.40
2018-05-06T23:16:03.881Z,54.40
2018-05-06T23:18:32.407Z,54.50
2018-05-06T23:21:00.654Z,55.00
2018-05-06T23:23:28.797Z,55.70
2018-05-06T23:25:57.219Z,56.00
2018-05-06T23:28:25.779Z,55.90
2018-05-06T23:30:54.734Z,56.20
2018-05-06T23:33:23.214Z,55.40
2018-05-06T23:35:51.393Z,55.90
2018-05-06T23:38:19.881Z,57.30
2018-05-06T23:40:48.512Z,57.90
2018-05-06T23:43:16.950Z,58.00
2018-05-06T23:45:45.759Z,58.10
2018-05-06T23:48:14.162Z,58.90
2018-05-06T23:50:42.334Z,59.50
2018-05-06T23:53:10.518Z,59.60
2018-05-06T23:55:39.248Z,60.00
2018-05-06T23:58:07.419Z,61.00
